Aérodrome :
LOGIN :

S'inscrire | Disclaimer

   EN    FR    IT 

 










Légende :    VFR   VFR Marginal   IFR   IFR Intensif   IFR Très Intensif
Visi : 
Plafond : 
>= 8 km
>= 3000ft
5 à 8 km
1000 à 3000 ft
1500m à 5 km
500 à 1000 ft
800 à 1500m
200 à 500 ft
< 800m
< 200 ft
Symboles :   Orages  Brouillard  Fortes neiges  Fortes précipitations  Vent > 20 kt
SIGMETs :   Divers  Orages  Givrage  Turbulence  Onde Orograph.  Cendres Volcan.







- Altitude de l'aérodrome : 313 ft
- Code IATA : LEH
- Voir les cartes d'approche


LFOH - Le Havre Octeville

DERNIER METAR :
  • 181500Z AUTO 12009KT 090V170 CAVOK 26/14 Q1010 NOSIG

METARs EXPIRÉS :
  • 181430Z AUTO 15006KT 110V190 CAVOK 26/14 Q1010 NOSIG
  • 181400Z AUTO 14007KT 110V170 9999 FEW026/// OVC110/// ///TCU 25/14 Q1011 TEMPO TSRA BKN100CB
  • 181330Z AUTO VRB03KT 9999 ///TCU 24/14 Q1011 TEMPO TSRA BKN100CB
  • 181300Z AUTO 15007KT 100V180 CAVOK 25/13 Q1011 TEMPO TSRA BKN100CB
  • 181230Z AUTO 33003KT 230V020 CAVOK 22/15 Q1011 TEMPO TSRA BKN100CB BECMG 11010KT
  • 181200Z AUTO VRB04KT CAVOK 23/15 Q1011 NOSIG

TAF TAF LFOH
Valide du 18 à 12h jusqu'au 19 à 12h UTC


181100Z 1812/1912 11010KT CAVOK
TEMPO 1812/1815 SHRA BKN100CB
PROB40
TEMPO 1813/1815 TSRA
PROB30
TEMPO 1818/1905 VRB20G35KT 2000 TSRAGR BKN080CB
BECMG 1907/1909 22010KT
ATIS : +33 2 35 54 64 93
Pas de NOTAMs connus pour ce terrain.



MET'MAP, la Météo Aéronautique d'un coup d'oeil ! - Copyright ORBIFLY Décembre 2007 - Disclaimer

ORBIFLY MET'MAP TEAM :

Programmation & Développement : Alexandra Zaïnal
Conception & Développement : Baudouin d'Aumeries
Co-Programmation & Développement : Marc-Olivier Méhu
Soutien technique & logistique : Manuel Goepfert

Contact : metmap@orbifly.com




SOURCES & CREDITS :

   NOAA